Time;durP1;ratioP1;P1;durP2;ratioP2;P2;SDS_P1;SDS_P2;PMS_P1;PMS_P2;Temp;Humidity;BMP_temperature;BMP_pressure;BME280_temperature;BME280_humidity;BME280_pressure;Samples;Min_cycle;Max_cycle;Signal;HPM_P1;HPM_P2
2023/02/14 00:02:06;;;;;;;28.30;18.80;;;1.20;99.90;;;;;;4974327;28;20175;-71
2023/02/14 00:04:37;;;;;;;32.10;20.90;;;1.20;99.90;;;;;;4970846;28;20519;-71
2023/02/14 00:07:03;;;;;;;33.67;19.20;;;1.10;99.90;;;;;;4972656;28;20183;-72
2023/02/14 00:09:28;;;;;;;28.00;20.23;;;1.10;99.90;;;;;;4972368;28;20439;-71
2023/02/14 00:11:54;;;;;;;29.13;18.77;;;1.10;99.90;;;;;;4973078;28;20494;-71
2023/02/14 00:17:04;;;;;;;33.07;19.93;;;1.10;99.90;;;;;;4967891;28;20624;-70
2023/02/14 00:19:30;;;;;;;35.37;19.70;;;1.00;99.90;;;;;;4972982;28;20526;-71
2023/02/14 00:21:56;;;;;;;28.37;18.27;;;1.10;99.90;;;;;;4973872;28;20230;-71
2023/02/14 00:24:24;;;;;;;29.10;19.23;;;1.00;99.90;;;;;;4973109;28;20849;-71
2023/02/14 00:26:50;;;;;;;34.80;19.77;;;1.10;99.90;;;;;;4973015;28;20188;-71
2023/02/14 00:29:22;;;;;;;30.87;20.03;;;1.10;99.90;;;;;;4972764;28;21054;-71
2023/02/14 00:31:47;;;;;;;28.70;19.27;;;1.10;99.90;;;;;;4972244;28;20471;-71
2023/02/14 00:34:15;;;;;;;29.10;18.37;;;1.10;99.90;;;;;;4973477;28;20450;-71
2023/02/14 00:36:41;;;;;;;30.93;21.53;;;1.10;99.90;;;;;;4972980;28;20220;-71
2023/02/14 00:39:09;;;;;;;35.13;20.83;;;1.10;99.90;;;;;;4973763;28;20550;-71
2023/02/14 00:41:35;;;;;;;26.33;17.27;;;1.10;99.90;;;;;;4973580;28;20190;-71
2023/02/14 00:44:01;;;;;;;28.70;19.33;;;1.10;99.90;;;;;;4974238;28;20807;-71
2023/02/14 00:46:27;;;;;;;27.20;19.67;;;1.20;99.90;;;;;;4972060;28;20443;-71
2023/02/14 00:48:53;;;;;;;29.10;18.40;;;1.10;99.90;;;;;;4971299;28;20471;-71
2023/02/14 00:51:20;;;;;;;26.27;17.53;;;1.20;99.90;;;;;;4973192;28;20518;-72
2023/02/14 00:53:47;;;;;;;32.53;18.97;;;1.20;99.90;;;;;;4972108;28;20440;-71
2023/02/14 00:56:14;;;;;;;30.53;18.87;;;1.20;99.90;;;;;;4974762;28;20439;-71
2023/02/14 00:58:40;;;;;;;26.67;18.13;;;1.20;99.90;;;;;;4972239;28;20475;-71
2023/02/14 01:01:06;;;;;;;26.70;18.87;;;1.10;99.90;;;;;;4972021;28;20459;-72
2023/02/14 01:03:32;;;;;;;26.67;17.30;;;1.10;99.90;;;;;;4972481;28;20529;-72
2023/02/14 01:05:57;;;;;;;30.60;17.80;;;1.20;99.90;;;;;;4972702;28;20180;-71
2023/02/14 01:08:23;;;;;;;26.03;17.33;;;1.20;99.90;;;;;;4972318;28;20576;-71
2023/02/14 01:10:49;;;;;;;27.10;16.93;;;1.20;99.90;;;;;;4972990;28;20230;-72
2023/02/14 01:13:15;;;;;;;30.43;18.10;;;1.20;99.90;;;;;;4972250;28;20864;-72
2023/02/14 01:15:43;;;;;;;27.30;18.17;;;1.20;99.90;;;;;;4974129;28;20208;-71
2023/02/14 01:18:09;;;;;;;26.23;17.97;;;1.20;99.90;;;;;;4971501;28;20255;-71
2023/02/14 01:20:35;;;;;;;31.00;21.30;;;1.10;99.90;;;;;;4974093;28;21023;-72
2023/02/14 01:23:00;;;;;;;27.33;17.57;;;1.10;99.90;;;;;;4972813;28;20462;-72
2023/02/14 01:25:27;;;;;;;29.00;17.20;;;1.10;99.90;;;;;;4972095;28;20188;-71
2023/02/14 01:27:52;;;;;;;30.40;17.93;;;1.00;99.90;;;;;;4971979;28;20294;-72
2023/02/14 01:30:18;;;;;;;34.47;20.03;;;1.00;99.90;;;;;;4972100;28;20566;-72
2023/02/14 01:32:44;;;;;;;25.97;18.40;;;1.00;99.90;;;;;;4972792;28;20211;-72
2023/02/14 01:35:10;;;;;;;24.90;15.97;;;1.00;99.90;;;;;;4972836;28;20188;-72
2023/02/14 01:37:36;;;;;;;30.10;16.90;;;0.90;99.90;;;;;;4973952;28;20686;-71
2023/02/14 01:40:03;;;;;;;28.40;18.90;;;0.90;99.90;;;;;;4971352;28;20443;-71
2023/02/14 01:42:29;;;;;;;25.40;16.93;;;0.90;99.90;;;;;;4972580;28;20439;-72
2023/02/14 01:44:59;;;;;;;27.70;17.93;;;0.80;99.90;;;;;;4972762;28;20529;-72
2023/02/14 01:47:27;;;;;;;26.03;17.43;;;0.90;99.90;;;;;;4971676;28;20235;-72
2023/02/14 01:49:58;;;;;;;27.93;18.57;;;0.90;99.90;;;;;;4973278;28;20927;-71
2023/02/14 01:52:35;;;;;;;27.63;17.37;;;0.90;99.90;;;;;;4971454;28;20446;-71
2023/02/14 01:55:07;;;;;;;30.27;20.07;;;0.90;99.90;;;;;;4971732;28;20466;-71
2023/02/14 01:57:38;;;;;;;27.47;17.70;;;0.90;99.90;;;;;;4964781;28;20566;-71
2023/02/14 02:02:49;;;;;;;23.80;16.50;;;0.90;99.90;;;;;;4959451;28;21018;-71
2023/02/14 02:05:16;;;;;;;28.00;19.20;;;0.90;99.90;;;;;;4972134;28;20993;-72
2023/02/14 02:07:41;;;;;;;25.90;17.43;;;0.80;99.90;;;;;;4971204;28;20471;-71
2023/02/14 02:10:08;;;;;;;26.33;17.20;;;0.80;99.90;;;;;;4974839;28;20474;-71
2023/02/14 02:12:34;;;;;;;29.40;19.00;;;0.80;99.90;;;;;;4972015;28;20782;-72
2023/02/14 02:15:01;;;;;;;27.60;18.07;;;0.80;99.90;;;;;;4972341;28;20598;-71
2023/02/14 02:17:48;;;;;;;27.83;16.60;;;0.80;99.90;;;;;;4971527;28;20463;-71
2023/02/14 02:21:07;;;;;;;28.33;17.37;;;0.80;99.90;;;;;;4970918;28;20481;-71
2023/02/14 02:24:09;;;;;;;26.10;17.80;;;0.80;99.90;;;;;;4970725;28;20858;-72
2023/02/14 02:26:59;;;;;;;24.27;16.20;;;0.70;99.90;;;;;;4969304;28;21064;-71
2023/02/14 02:29:54;;;;;;;24.10;17.20;;;0.70;99.90;;;;;;4968697;28;20502;-72
2023/02/14 02:32:28;;;;;;;25.60;17.47;;;0.70;99.90;;;;;;4964068;28;20458;-71
2023/02/14 02:35:27;;;;;;;22.40;15.83;;;0.70;99.90;;;;;;4971249;28;20450;-71
2023/02/14 02:38:23;;;;;;;25.37;16.07;;;0.60;99.90;;;;;;4969822;28;20467;-71
2023/02/14 02:41:16;;;;;;;24.67;16.30;;;0.70;99.90;;;;;;4970818;28;20442;-71
2023/02/14 02:44:14;;;;;;;24.70;16.23;;;0.60;99.90;;;;;;4969174;28;20510;-71
2023/02/14 02:47:01;;;;;;;22.53;15.43;;;0.70;99.90;;;;;;4973324;28;20802;-71
2023/02/14 02:53:02;;;;;;;25.07;16.27;;;0.70;99.90;;;;;;4970005;28;20486;-72
2023/02/14 02:58:38;;;;;;;28.77;17.33;;;0.70;99.90;;;;;;4973450;28;20486;-72
2023/02/14 03:01:10;;;;;;;27.27;17.60;;;0.70;99.90;;;;;;4975929;28;20828;-71
2023/02/14 03:06:21;;;;;;;28.53;18.77;;;0.50;99.90;;;;;;4974329;28;20466;-71
2023/02/14 03:08:46;;;;;;;31.87;18.60;;;0.50;99.90;;;;;;4973364;28;20949;-72
2023/02/14 03:11:12;;;;;;;29.47;17.23;;;0.50;99.90;;;;;;4975294;28;20232;-72
2023/02/14 03:14:04;;;;;;;24.93;17.80;;;0.40;99.90;;;;;;4972149;28;20176;-72
2023/02/14 03:16:40;;;;;;;24.50;17.73;;;0.40;99.90;;;;;;4971297;28;20435;-71
2023/02/14 03:19:35;;;;;;;33.27;18.10;;;0.40;99.90;;;;;;4974418;28;20465;-71
2023/02/14 03:22:24;;;;;;;27.00;17.23;;;0.40;99.90;;;;;;4972799;28;20557;-71
2023/02/14 03:25:09;;;;;;;25.57;17.23;;;0.40;99.90;;;;;;4973197;28;20482;-72
2023/02/14 03:27:45;;;;;;;27.70;17.67;;;0.40;99.90;;;;;;4969746;28;21035;-71
2023/02/14 03:30:43;;;;;;;25.53;17.17;;;0.40;99.90;;;;;;4971780;28;20474;-72
2023/02/14 03:33:21;;;;;;;25.97;17.17;;;0.40;99.90;;;;;;4972645;28;20443;-71
2023/02/14 03:36:00;;;;;;;27.47;18.27;;;0.40;99.90;;;;;;4973687;28;20439;-71
2023/02/14 03:38:48;;;;;;;23.57;16.60;;;0.40;99.90;;;;;;4970893;28;20466;-71
2023/02/14 03:41:20;;;;;;;25.23;17.23;;;0.40;99.90;;;;;;4971271;28;20538;-71
2023/02/14 03:43:51;;;;;;;26.60;17.77;;;0.40;99.90;;;;;;4973553;28;20458;-72
2023/02/14 03:46:24;;;;;;;31.00;19.37;;;0.40;99.90;;;;;;4972080;28;20456;-72
2023/02/14 03:48:53;;;;;;;23.63;16.30;;;0.40;99.90;;;;;;4973004;28;20466;-72
2023/02/14 03:51:21;;;;;;;26.57;18.87;;;0.40;99.90;;;;;;4975655;28;20479;-72
2023/02/14 03:53:52;;;;;;;25.30;16.73;;;0.40;99.90;;;;;;4972895;28;20440;-71
2023/02/14 03:56:31;;;;;;;24.07;18.07;;;0.40;99.90;;;;;;4973432;28;20440;-71
2023/02/14 03:59:04;;;;;;;25.00;17.77;;;0.30;99.90;;;;;;4971000;28;21575;-72
2023/02/14 04:01:55;;;;;;;25.87;17.80;;;0.30;99.90;;;;;;4975437;28;20458;-72
2023/02/14 04:04:25;;;;;;;27.20;17.30;;;0.40;99.90;;;;;;4973230;28;20447;-71
2023/02/14 04:06:51;;;;;;;24.90;16.00;;;0.30;99.90;;;;;;4973588;28;20884;-71
2023/02/14 04:09:17;;;;;;;24.83;16.53;;;0.30;99.90;;;;;;4972074;28;20550;-72
2023/02/14 04:11:42;;;;;;;24.77;16.60;;;0.30;99.90;;;;;;4975263;28;20571;-71
2023/02/14 04:14:08;;;;;;;23.87;16.73;;;0.30;99.90;;;;;;4980998;28;20469;-72
2023/02/14 04:19:21;;;;;;;26.63;18.17;;;0.30;99.90;;;;;;4974166;28;20436;-72
2023/02/14 04:19:22;;;;;;;27.80;17.10;;;0.30;99.90;;;;;;4972918;28;20204;-71
2023/02/14 04:21:50;;;;;;;25.73;17.90;;;0.30;99.90;;;;;;4972107;28;20530;-71
2023/02/14 04:24:15;;;;;;;29.67;18.67;;;0.30;99.90;;;;;;4971469;28;20873;-71
2023/02/14 04:26:52;;;;;;;28.70;17.73;;;0.20;99.90;;;;;;4972043;28;20443;-72
2023/02/14 04:29:19;;;;;;;28.20;19.10;;;0.20;99.90;;;;;;4972785;28;20215;-72
2023/02/14 04:31:45;;;;;;;28.83;17.50;;;0.30;99.90;;;;;;4976416;28;20528;-71
2023/02/14 04:34:11;;;;;;;35.90;19.90;;;0.20;99.90;;;;;;4983928;28;20442;-73
2023/02/14 04:36:36;;;;;;;33.87;18.73;;;0.20;99.90;;;;;;4974471;28;20184;-74
2023/02/14 04:39:02;;;;;;;30.23;19.07;;;0.30;99.90;;;;;;4969450;28;20200;-73
2023/02/14 04:41:27;;;;;;;28.77;19.97;;;0.30;99.90;;;;;;4959998;28;20247;-74
2023/02/14 04:43:53;;;;;;;37.07;21.20;;;0.30;99.90;;;;;;4968778;28;20678;-74
2023/02/14 04:46:18;;;;;;;32.80;21.80;;;0.30;99.90;;;;;;4973156;28;20255;-74
2023/02/14 04:48:44;;;;;;;36.10;21.47;;;0.30;99.90;;;;;;4976164;28;20212;-73
2023/02/14 04:51:09;;;;;;;31.97;21.47;;;0.30;99.90;;;;;;4970197;28;20291;-71
2023/02/14 04:53:38;;;;;;;37.87;21.67;;;0.40;99.90;;;;;;4973345;28;20192;-71
2023/02/14 04:56:05;;;;;;;36.13;21.40;;;0.30;99.90;;;;;;4970381;28;20176;-71
2023/02/14 04:58:30;;;;;;;33.50;21.13;;;0.30;99.90;;;;;;4973375;28;20555;-70
2023/02/14 05:00:56;;;;;;;37.57;20.57;;;0.30;99.90;;;;;;4973951;28;20412;-70
2023/02/14 05:03:21;;;;;;;34.77;20.53;;;0.30;99.90;;;;;;4973509;28;20187;-70
2023/02/14 05:05:47;;;;;;;36.97;19.60;;;0.30;99.90;;;;;;4973920;28;20175;-70
2023/02/14 05:08:13;;;;;;;36.77;22.40;;;0.20;99.90;;;;;;4973003;28;20654;-70
2023/02/14 05:10:39;;;;;;;38.83;22.60;;;0.20;99.90;;;;;;4973679;28;20198;-71
2023/02/14 05:13:04;;;;;;;31.60;19.67;;;0.30;99.90;;;;;;4973696;28;20419;-71
2023/02/14 05:15:30;;;;;;;38.87;23.50;;;0.30;99.90;;;;;;4973634;28;20591;-70
2023/02/14 05:18:00;;;;;;;41.63;24.37;;;0.30;99.90;;;;;;4973726;28;20212;-70
2023/02/14 05:20:27;;;;;;;34.73;21.90;;;0.30;99.90;;;;;;4972935;28;20821;-71
2023/02/14 05:22:52;;;;;;;38.13;21.60;;;0.30;99.90;;;;;;4973547;28;20433;-70
2023/02/14 05:25:18;;;;;;;37.30;21.77;;;0.20;99.90;;;;;;4973556;28;20423;-71
2023/02/14 05:27:43;;;;;;;36.57;24.23;;;0.20;99.90;;;;;;4973453;28;20188;-71
2023/02/14 05:30:10;;;;;;;37.90;23.33;;;0.30;99.90;;;;;;4972689;28;20200;-70
2023/02/14 05:32:35;;;;;;;47.30;23.10;;;0.30;99.90;;;;;;4973494;28;20176;-70
2023/02/14 05:35:01;;;;;;;39.03;22.03;;;0.30;99.90;;;;;;4973499;28;20416;-70
2023/02/14 05:37:27;;;;;;;38.97;23.90;;;0.30;99.90;;;;;;4973360;28;20199;-70
2023/02/14 05:39:52;;;;;;;36.90;22.20;;;0.30;99.90;;;;;;4972717;28;20168;-70
2023/02/14 05:42:18;;;;;;;45.07;23.17;;;0.30;99.90;;;;;;4973339;28;20172;-70
2023/02/14 05:44:43;;;;;;;39.63;23.47;;;0.20;99.90;;;;;;4973390;28;20176;-71
2023/02/14 05:47:09;;;;;;;44.17;25.10;;;0.20;99.90;;;;;;4973235;28;20175;-71
2023/02/14 05:49:34;;;;;;;40.57;24.70;;;0.20;99.90;;;;;;4972661;28;20173;-71
2023/02/14 05:52:00;;;;;;;38.67;21.40;;;0.20;99.90;;;;;;4973177;28;20210;-71
2023/02/14 05:54:26;;;;;;;45.23;22.87;;;0.20;99.90;;;;;;4973274;28;20475;-71
2023/02/14 05:56:51;;;;;;;41.27;24.40;;;0.30;99.90;;;;;;4973190;28;20227;-70
2023/02/14 05:59:17;;;;;;;43.30;23.90;;;0.30;99.90;;;;;;4972211;28;20219;-71
2023/02/14 06:01:42;;;;;;;40.40;25.53;;;0.20;99.90;;;;;;4973162;28;20176;-71
2023/02/14 06:04:08;;;;;;;34.03;21.20;;;0.30;99.90;;;;;;4973348;28;20199;-70
2023/02/14 06:06:33;;;;;;;40.93;23.77;;;0.20;99.90;;;;;;4971465;28;20176;-71
2023/02/14 06:08:59;;;;;;;46.53;23.43;;;0.20;99.90;;;;;;4972199;28;20194;-71
2023/02/14 06:11:24;;;;;;;53.47;27.50;;;0.20;99.90;;;;;;4973153;28;20298;-70
2023/02/14 06:13:50;;;;;;;36.90;23.80;;;0.10;99.90;;;;;;4973322;28;20169;-70
2023/02/14 06:16:15;;;;;;;36.87;22.30;;;0.10;99.90;;;;;;4976499;28;20234;-70
2023/02/14 06:18:41;;;;;;;40.00;23.27;;;0.10;99.90;;;;;;4976118;28;20196;-71
2023/02/14 06:21:06;;;;;;;36.43;22.47;;;0.10;99.90;;;;;;4976758;28;20626;-70
2023/02/14 06:23:32;;;;;;;41.33;23.50;;;0.00;99.90;;;;;;4976723;28;20182;-70
2023/02/14 06:25:57;;;;;;;41.43;24.00;;;0.00;99.90;;;;;;4976652;28;20184;-71
2023/02/14 06:28:23;;;;;;;35.60;23.30;;;0.00;99.90;;;;;;4975912;28;20200;-71
2023/02/14 06:30:48;;;;;;;41.43;24.23;;;0.00;99.90;;;;;;4976596;28;20212;-70
2023/02/14 06:33:14;;;;;;;45.27;26.07;;;0.00;99.90;;;;;;4976697;28;20626;-70
2023/02/14 06:35:39;;;;;;;42.40;22.97;;;0.10;99.90;;;;;;4976446;28;20184;-70
2023/02/14 06:38:05;;;;;;;37.17;22.70;;;0.10;99.90;;;;;;4976336;28;20246;-70
2023/02/14 06:40:30;;;;;;;42.83;23.00;;;0.10;99.90;;;;;;4975847;28;20172;-71
2023/02/14 06:42:56;;;;;;;40.07;24.47;;;0.10;99.90;;;;;;4976455;28;20683;-71
2023/02/14 06:45:21;;;;;;;37.83;22.40;;;0.10;99.90;;;;;;4976412;28;20702;-70
2023/02/14 06:47:47;;;;;;;38.33;22.73;;;0.10;99.90;;;;;;4976420;28;20222;-70
2023/02/14 06:50:12;;;;;;;38.67;23.57;;;0.10;99.90;;;;;;4975574;28;20204;-71
2023/02/14 06:52:38;;;;;;;43.53;25.40;;;0.20;99.90;;;;;;4976157;28;20172;-70
2023/02/14 06:55:04;;;;;;;36.63;24.20;;;0.20;99.90;;;;;;4976196;28;20767;-71
2023/02/14 06:57:30;;;;;;;39.07;23.53;;;0.30;99.90;;;;;;4975966;28;20204;-71
2023/02/14 06:59:55;;;;;;;38.93;24.33;;;0.30;99.90;;;;;;4975653;28;20814;-71
2023/02/14 07:02:21;;;;;;;39.00;23.73;;;0.30;99.90;;;;;;4976094;28;20180;-70
2023/02/14 07:04:46;;;;;;;34.80;21.50;;;0.30;99.90;;;;;;4975959;28;20263;-70
2023/02/14 07:07:12;;;;;;;38.97;22.67;;;0.30;99.90;;;;;;4975073;28;20179;-71
2023/02/14 07:09:37;;;;;;;37.07;22.70;;;0.40;99.90;;;;;;4975184;28;20165;-70
2023/02/14 07:12:03;;;;;;;34.17;21.03;;;0.50;99.90;;;;;;4975931;28;20204;-71
2023/02/14 07:14:28;;;;;;;34.53;22.60;;;0.80;99.90;;;;;;4975838;28;20324;-71
2023/02/14 07:16:54;;;;;;;38.63;22.80;;;1.00;99.90;;;;;;4975872;28;20181;-70
2023/02/14 07:19:19;;;;;;;33.40;21.60;;;1.20;99.90;;;;;;4975071;28;20196;-71
2023/02/14 07:21:45;;;;;;;37.00;21.63;;;1.70;99.90;;;;;;4975673;28;20638;-70
2023/02/14 07:24:10;;;;;;;41.73;21.57;;;2.00;99.90;;;;;;4975708;28;20598;-71
2023/02/14 07:26:36;;;;;;;29.50;19.90;;;2.30;99.90;;;;;;4975340;28;20207;-71
2023/02/14 07:29:02;;;;;;;30.33;19.80;;;2.50;99.90;;;;;;4974821;28;20666;-71
2023/02/14 07:31:27;;;;;;;34.50;22.40;;;2.80;99.90;;;;;;4975479;28;20251;-71
2023/02/14 07:33:53;;;;;;;32.10;21.17;;;3.20;99.90;;;;;;4975131;28;20187;-71
2023/02/14 07:36:18;;;;;;;30.70;20.20;;;3.60;99.90;;;;;;4964541;28;20172;-69
2023/02/14 07:38:44;;;;;;;33.90;20.70;;;3.90;99.90;;;;;;4948605;28;20695;-70
2023/02/14 07:41:10;;;;;;;28.77;19.40;;;4.20;99.90;;;;;;4971152;28;20203;-71
2023/02/14 07:43:35;;;;;;;29.37;19.60;;;4.50;99.90;;;;;;4975088;28;20187;-74
2023/02/14 07:46:02;;;;;;;30.23;20.30;;;4.80;99.90;;;;;;4975245;28;20548;-69
2023/02/14 07:48:28;;;;;;;29.50;20.23;;;5.00;99.90;;;;;;4974476;28;20192;-69
2023/02/14 07:50:57;;;;;;;32.53;19.90;;;4.90;99.90;;;;;;4975291;28;20456;-70
2023/02/14 07:53:23;;;;;;;29.23;20.53;;;4.80;99.90;;;;;;4975061;28;20431;-71
2023/02/14 07:55:50;;;;;;;33.83;20.80;;;4.80;99.90;;;;;;4974988;28;20419;-71
2023/02/14 07:58:15;;;;;;;28.00;18.97;;;4.90;99.90;;;;;;4973993;28;20886;-71
2023/02/14 08:00:41;;;;;;;35.10;22.43;;;5.00;99.90;;;;;;4975022;28;20423;-71
2023/02/14 08:03:06;;;;;;;31.50;20.50;;;5.00;99.90;;;;;;4975063;28;20288;-71
2023/02/14 08:05:32;;;;;;;29.77;19.63;;;5.10;99.90;;;;;;4975038;28;20549;-69
2023/02/14 08:07:57;;;;;;;24.90;18.77;;;5.40;99.90;;;;;;4974714;28;20674;-69
2023/02/14 08:10:23;;;;;;;24.70;19.17;;;5.30;99.90;;;;;;4974148;28;20207;-69
2023/02/14 08:12:57;;;;;;;29.73;21.13;;;5.20;99.90;;;;;;4974841;28;20176;-70
2023/02/14 08:18:07;;;;;;;26.37;18.80;;;5.40;99.90;;;;;;4974594;28;20451;-69
2023/02/14 08:20:32;;;;;;;30.00;19.57;;;5.90;99.90;;;;;;4974039;28;20416;-72
2023/02/14 08:22:58;;;;;;;28.80;19.23;;;6.50;99.90;;;;;;4974382;28;20187;-68
2023/02/14 08:25:23;;;;;;;29.03;19.60;;;7.00;99.90;;;;;;4974672;28;20180;-69
2023/02/14 08:27:49;;;;;;;27.77;19.13;;;7.60;99.90;;;;;;4974477;28;20212;-69
2023/02/14 08:30:15;;;;;;;25.70;18.53;;;8.10;99.90;;;;;;4973572;28;20207;-68
2023/02/14 08:32:40;;;;;;;25.63;20.00;;;8.60;99.90;;;;;;4973233;28;20180;-69
2023/02/14 08:35:06;;;;;;;26.27;19.30;;;9.00;99.90;;;;;;4974439;28;20411;-70
2023/02/14 08:37:32;;;;;;;26.40;18.50;;;9.30;99.90;;;;;;4967779;28;20608;-69
2023/02/14 08:39:57;;;;;;;24.57;19.43;;;9.50;99.90;;;;;;4972907;28;20419;-70
2023/02/14 08:42:23;;;;;;;23.20;19.43;;;9.70;99.90;;;;;;4973861;28;20177;-69
2023/02/14 08:44:48;;;;;;;24.90;19.90;;;8.90;99.90;;;;;;4973545;28;20191;-69
2023/02/14 08:47:14;;;;;;;23.50;20.63;;;8.90;99.90;;;;;;4973166;28;20867;-71
2023/02/14 08:49:39;;;;;;;24.07;18.60;;;8.90;99.90;;;;;;4972850;28;20642;-71
2023/02/14 08:52:05;;;;;;;25.50;19.60;;;9.60;99.90;;;;;;4973458;28;20705;-70
2023/02/14 08:54:30;;;;;;;22.20;19.90;;;10.40;99.90;;;;;;4973473;28;20528;-70
2023/02/14 08:56:56;;;;;;;24.10;20.30;;;10.90;99.90;;;;;;4973389;28;20550;-70
2023/02/14 08:59:22;;;;;;;24.73;20.00;;;11.60;99.90;;;;;;4972725;28;20701;-70
2023/02/14 09:01:47;;;;;;;24.60;22.00;;;12.30;99.90;;;;;;4973460;28;20423;-70
2023/02/14 09:04:13;;;;;;;23.73;21.10;;;12.40;99.90;;;;;;4973183;28;20251;-70
2023/02/14 09:06:39;;;;;;;22.30;19.90;;;13.00;99.90;;;;;;4973394;28;20195;-70
2023/02/14 09:09:05;;;;;;;22.23;20.00;;;12.90;99.90;;;;;;4972863;28;20691;-70
2023/02/14 09:11:31;;;;;;;23.83;19.90;;;11.70;99.90;;;;;;4973301;28;20471;-70
2023/02/14 09:13:56;;;;;;;21.37;19.10;;;12.50;99.90;;;;;;4973213;28;20478;-71
2023/02/14 09:16:23;;;;;;;22.10;20.00;;;12.50;99.90;;;;;;4973975;28;20200;-68
2023/02/14 09:18:53;;;;;;;23.17;20.60;;;12.80;99.90;;;;;;4972980;28;20200;-71
2023/02/14 09:21:22;;;;;;;21.53;19.30;;;13.30;99.90;;;;;;4973667;28;20490;-71
2023/02/14 09:23:48;;;;;;;22.83;20.33;;;14.10;99.30;;;;;;4973373;28;20435;-70
2023/02/14 09:26:15;;;;;;;21.07;18.80;;;14.60;97.50;;;;;;4973552;28;20538;-71
2023/02/14 09:28:41;;;;;;;20.40;18.20;;;15.10;94.90;;;;;;4972036;28;20202;-71
2023/02/14 09:31:12;;;;;;;21.43;19.43;;;15.00;93.50;;;;;;4973334;28;20872;-70
2023/02/14 09:36:22;;;;;;;21.40;19.20;;;14.20;94.10;;;;;;4972954;28;20462;-72
2023/02/14 09:38:48;;;;;;;22.47;20.37;;;14.60;94.40;;;;;;4971631;28;20443;-71
2023/02/14 09:41:29;;;;;;;20.53;18.50;;;15.30;93.10;;;;;;4972828;28;20176;-71
2023/02/14 09:44:11;;;;;;;19.07;17.10;;;15.90;91.50;;;;;;4973098;28;20176;-70
2023/02/14 09:46:45;;;;;;;19.70;17.63;;;16.00;91.00;;;;;;4973060;28;20427;-71
2023/02/14 09:49:17;;;;;;;20.03;17.70;;;16.50;89.50;;;;;;4972161;28;20438;-71
2023/02/14 09:51:48;;;;;;;18.77;16.97;;;16.90;87.10;;;;;;4972815;28;20522;-68
2023/02/14 09:54:25;;;;;;;20.97;18.97;;;17.30;85.10;;;;;;4972629;28;20416;-68
2023/02/14 09:56:57;;;;;;;21.00;18.80;;;18.50;82.00;;;;;;4972988;28;20415;-71
2023/02/14 09:59:28;;;;;;;18.80;17.10;;;18.90;77.10;;;;;;4972154;28;20451;-70
2023/02/14 10:02:14;;;;;;;19.77;17.87;;;19.20;74.80;;;;;;4972956;28;20462;-69
2023/02/14 10:05:12;;;;;;;21.23;18.40;;;18.50;74.30;;;;;;4972792;28;20427;-71
2023/02/14 10:08:08;;;;;;;19.93;18.03;;;18.60;73.60;;;;;;4964306;28;20455;-71
2023/02/14 10:10:42;;;;;;;18.93;17.20;;;19.20;72.90;;;;;;4972509;28;20870;-71
2023/02/14 10:13:21;;;;;;;19.17;17.23;;;19.80;71.30;;;;;;4973098;28;20415;-69
2023/02/14 10:15:57;;;;;;;19.53;17.60;;;20.10;70.50;;;;;;4973247;28;20481;-68
2023/02/14 10:18:31;;;;;;;18.50;16.60;;;20.80;68.60;;;;;;4972175;28;20434;-68
2023/02/14 10:20:59;;;;;;;18.00;16.40;;;19.70;67.40;;;;;;4974080;28;20917;-69
2023/02/14 10:23:44;;;;;;;18.00;16.53;;;20.30;67.30;;;;;;4973991;28;20416;-69
2023/02/14 10:26:35;;;;;;;21.30;15.80;;;20.80;65.00;;;;;;4972699;28;20963;-68
2023/02/14 10:29:02;;;;;;;17.90;15.83;;;21.30;63.20;;;;;;4957049;28;20455;-69
2023/02/14 10:31:54;;;;;;;18.13;16.33;;;21.70;61.70;;;;;;4972803;28;20552;-68
2023/02/14 10:34:31;;;;;;;20.03;16.50;;;22.00;58.40;;;;;;4972751;28;20448;-68
2023/02/14 10:37:27;;;;;;;18.40;16.50;;;21.50;58.80;;;;;;4972568;28;20451;-67
2023/02/14 10:40:09;;;;;;;17.37;15.87;;;22.00;58.20;;;;;;4971968;28;20408;-70
2023/02/14 10:42:49;;;;;;;18.80;16.73;;;23.10;55.20;;;;;;4972578;28;20807;-68
2023/02/14 10:45:15;;;;;;;20.10;18.27;;;22.50;54.20;;;;;;4972668;28;20462;-69
2023/02/14 10:47:59;;;;;;;16.73;15.33;;;23.30;53.20;;;;;;4972816;28;20440;-68
2023/02/14 10:50:34;;;;;;;16.17;14.80;;;23.80;47.90;;;;;;4971382;28;20200;-68
2023/02/14 10:53:11;;;;;;;16.47;14.63;;;22.10;48.30;;;;;;4972533;28;20400;-67
2023/02/14 10:55:50;;;;;;;17.23;15.53;;;22.90;47.90;;;;;;4972175;28;20419;-69
2023/02/14 10:58:19;;;;;;;17.73;16.07;;;22.70;47.80;;;;;;4988377;23;20505;-69
2023/02/14 11:00:53;;;;;;;17.90;16.10;;;23.00;48.30;;;;;;4992303;28;20481;-69
2023/02/14 11:03:19;;;;;;;17.23;15.73;;;22.80;48.30;;;;;;4997086;28;20474;-68
2023/02/14 11:05:48;;;;;;;18.30;15.53;;;22.60;47.60;;;;;;4997650;28;20431;-68
2023/02/14 11:08:20;;;;;;;16.50;15.00;;;24.10;47.00;;;;;;4994153;28;20221;-65
2023/02/14 11:10:46;;;;;;;17.63;15.90;;;24.50;48.60;;;;;;4995258;28;20474;-67
2023/02/14 11:13:39;;;;;;;15.80;14.17;;;23.60;49.00;;;;;;4995247;28;20440;-69
2023/02/14 11:16:07;;;;;;;16.40;14.90;;;24.30;48.10;;;;;;4994175;28;20179;-68
2023/02/14 11:18:38;;;;;;;16.70;15.23;;;24.70;48.40;;;;;;4994169;28;20943;-70
2023/02/14 11:21:13;;;;;;;16.13;14.67;;;25.80;47.20;;;;;;4994715;28;20434;-70
2023/02/14 11:23:42;;;;;;;17.47;15.87;;;27.20;47.50;;;;;;4994600;28;20422;-69
2023/02/14 11:26:10;;;;;;;15.00;13.67;;;26.60;46.30;;;;;;4995063;28;20430;-69
2023/02/14 11:28:44;;;;;;;15.30;14.10;;;26.50;46.10;;;;;;4992572;28;20461;-68
2023/02/14 11:31:10;;;;;;;16.37;14.77;;;26.80;46.50;;;;;;4994627;28;20461;-69
2023/02/14 11:33:43;;;;;;;16.77;15.33;;;26.40;45.30;;;;;;4994662;28;20425;-69
2023/02/14 11:36:13;;;;;;;17.00;15.60;;;25.40;46.00;;;;;;4994639;28;20175;-69
2023/02/14 11:38:40;;;;;;;15.53;14.07;;;26.10;45.90;;;;;;4993624;28;20534;-69
2023/02/14 11:41:10;;;;;;;16.57;15.30;;;27.00;45.50;;;;;;4994582;28;20444;-69
2023/02/14 11:43:38;;;;;;;16.70;15.10;;;27.30;44.80;;;;;;4994722;28;20434;-70
2023/02/14 11:46:13;;;;;;;15.97;14.67;;;28.50;45.00;;;;;;4994286;28;20967;-70
2023/02/14 11:48:55;;;;;;;15.43;14.13;;;28.90;45.50;;;;;;4988771;28;20608;-70
2023/02/14 11:51:30;;;;;;;15.60;14.40;;;29.10;41.00;;;;;;4994338;28;20462;-70
2023/02/14 11:54:02;;;;;;;17.07;15.47;;;28.90;39.40;;;;;;4994878;28;20453;-71
2023/02/14 11:56:54;;;;;;;17.17;15.33;;;28.50;38.70;;;;;;4994681;28;20454;-71
2023/02/14 11:59:25;;;;;;;17.77;16.27;;;28.70;35.70;;;;;;4994059;28;20561;-71
2023/02/14 12:01:51;;;;;;;15.90;14.40;;;28.80;35.00;;;;;;4994803;28;20426;-70
2023/02/14 12:04:21;;;;;;;15.43;14.13;;;29.40;34.30;;;;;;4994152;28;20430;-70
2023/02/14 12:06:46;;;;;;;16.53;15.13;;;29.60;33.70;;;;;;4994250;28;20476;-71
2023/02/14 12:09:21;;;;;;;16.03;14.73;;;30.00;33.50;;;;;;4993595;28;20820;-70
2023/02/14 12:11:58;;;;;;;16.73;14.90;;;30.20;32.70;;;;;;4993701;28;20203;-70
2023/02/14 12:14:34;;;;;;;18.60;17.20;;;29.80;33.10;;;;;;4994145;28;20428;-70
2023/02/14 12:17:31;;;;;;;14.97;13.77;;;29.80;32.50;;;;;;4985292;28;21031;-69
2023/02/14 12:20:07;;;;;;;16.23;14.97;;;29.70;32.80;;;;;;4973795;28;20435;-70
2023/02/14 12:22:40;;;;;;;17.60;16.20;;;29.60;32.50;;;;;;4982766;28;20474;-69
2023/02/14 12:25:17;;;;;;;18.90;17.40;;;29.70;32.40;;;;;;4993472;28;20429;-69
2023/02/14 12:27:54;;;;;;;19.67;17.90;;;29.50;32.10;;;;;;4993316;28;20426;-70
2023/02/14 12:30:22;;;;;;;19.90;18.03;;;29.40;32.50;;;;;;4993138;28;20481;-70
2023/02/14 12:32:55;;;;;;;19.50;17.80;;;29.50;31.90;;;;;;4993362;28;20430;-70
2023/02/14 12:35:32;;;;;;;18.80;17.30;;;29.60;32.20;;;;;;4993682;28;20457;-70
2023/02/14 12:38:16;;;;;;;22.00;18.67;;;29.10;32.20;;;;;;4993345;28;20411;-69
2023/02/14 12:41:00;;;;;;;19.50;17.93;;;29.30;32.10;;;;;;4993430;28;20458;-69
2023/02/14 12:43:49;;;;;;;21.33;19.47;;;30.10;31.50;;;;;;4993222;28;20872;-69
2023/02/14 12:46:27;;;;;;;21.53;19.70;;;30.10;31.30;;;;;;4993154;28;20438;-69
2023/02/14 12:49:22;;;;;;;19.63;18.03;;;30.10;31.50;;;;;;4992729;28;20448;-70
2023/02/14 12:52:14;;;;;;;20.30;18.70;;;30.10;31.40;;;;;;4990775;28;20465;-69
2023/02/14 12:55:02;;;;;;;21.47;19.47;;;29.40;31.50;;;;;;4993293;28;20426;-68
2023/02/14 12:57:48;;;;;;;20.40;18.50;;;29.60;31.20;;;;;;4992218;28;20443;-69
2023/02/14 13:00:41;;;;;;;21.17;18.77;;;30.70;34.50;;;;;;4992335;28;20466;-69
2023/02/14 13:03:34;;;;;;;21.20;19.00;;;31.00;38.70;;;;;;4993239;28;20954;-70
2023/02/14 13:06:25;;;;;;;19.77;18.30;;;31.70;38.60;;;;;;4993577;28;20422;-70
2023/02/14 13:09:14;;;;;;;19.10;17.50;;;32.00;37.80;;;;;;4992526;28;20438;-69
2023/02/14 13:12:02;;;;;;;19.80;17.77;;;31.30;38.40;;;;;;4993504;28;20435;-70
2023/02/14 13:14:52;;;;;;;20.03;18.37;;;31.60;38.50;;;;;;4991894;28;20430;-69